createdAt,value
2022-12-26T00:01:09.332Z,7.50
2022-12-26T00:03:37.411Z,7.50
2022-12-26T00:06:13.458Z,7.50
2022-12-26T00:08:41.853Z,7.50
2022-12-26T00:11:09.806Z,7.50
2022-12-26T00:13:41.360Z,7.50
2022-12-26T00:16:11.413Z,7.50
2022-12-26T00:18:39.778Z,7.50
2022-12-26T00:21:10.748Z,7.50
2022-12-26T00:23:39.386Z,7.50
2022-12-26T00:26:08.467Z,7.50
2022-12-26T00:28:36.764Z,7.50
2022-12-26T00:31:05.980Z,7.50
2022-12-26T00:33:35.346Z,7.50
2022-12-26T00:36:03.844Z,7.50
2022-12-26T00:38:33.239Z,7.50
2022-12-26T00:41:01.372Z,7.50
2022-12-26T00:43:29.313Z,7.50
2022-12-26T00:45:57.475Z,7.50
2022-12-26T00:48:25.565Z,7.50
2022-12-26T00:50:53.457Z,7.50
2022-12-26T00:53:22.038Z,7.50
2022-12-26T00:55:51.368Z,7.50
2022-12-26T00:58:19.692Z,7.60
2022-12-26T01:00:47.807Z,7.60
2022-12-26T01:03:16.231Z,7.60
2022-12-26T01:05:45.490Z,7.50
2022-12-26T01:08:21.184Z,7.60
2022-12-26T01:10:53.465Z,7.60
2022-12-26T01:13:21.377Z,7.50
2022-12-26T01:15:51.028Z,7.50
2022-12-26T01:18:19.757Z,7.50
2022-12-26T01:20:47.666Z,7.50
2022-12-26T01:23:15.693Z,7.50
2022-12-26T01:26:18.300Z,7.50
2022-12-26T01:28:33.435Z,7.50
2022-12-26T01:31:05.114Z,7.50
2022-12-26T01:33:33.777Z,7.50
2022-12-26T01:36:01.709Z,7.50
2022-12-26T01:38:29.757Z,7.50
2022-12-26T01:41:11.785Z,7.50
2022-12-26T01:43:56.398Z,7.50
2022-12-26T01:46:29.695Z,7.50
2022-12-26T01:49:01.555Z,7.60
2022-12-26T01:51:34.449Z,7.60
2022-12-26T01:54:38.251Z,7.60
2022-12-26T01:56:52.984Z,7.60
2022-12-26T01:59:25.892Z,7.60
2022-12-26T02:01:55.778Z,7.60
2022-12-26T02:04:46.564Z,7.60
2022-12-26T02:07:15.126Z,7.60
2022-12-26T02:09:43.253Z,7.60
2022-12-26T02:12:37.602Z,7.60
2022-12-26T02:15:08.941Z,7.60
2022-12-26T02:17:38.075Z,7.60
2022-12-26T02:20:17.776Z,7.60
2022-12-26T02:23:24.661Z,7.60
2022-12-26T02:26:29.891Z,7.60
2022-12-26T02:29:45.764Z,7.60
2022-12-26T02:32:23.117Z,7.70
2022-12-26T02:34:57.341Z,7.60
2022-12-26T02:37:42.636Z,7.70
2022-12-26T02:40:30.236Z,7.70
2022-12-26T02:43:00.434Z,7.70
2022-12-26T02:45:54.636Z,7.70
2022-12-26T02:48:32.757Z,7.70
2022-12-26T02:51:25.526Z,7.80
2022-12-26T02:54:20.080Z,7.70
2022-12-26T02:57:10.960Z,7.80
2022-12-26T03:00:05.002Z,7.70
2022-12-26T03:02:57.137Z,7.70
2022-12-26T03:05:50.474Z,7.70
2022-12-26T03:08:43.010Z,7.70
2022-12-26T03:11:29.014Z,7.70
2022-12-26T03:14:07.940Z,7.70
2022-12-26T03:16:53.372Z,7.70
2022-12-26T03:19:24.616Z,7.70
2022-12-26T03:21:54.246Z,7.70
2022-12-26T03:24:23.373Z,7.70
2022-12-26T03:26:54.224Z,7.70
2022-12-26T03:29:42.314Z,7.70
2022-12-26T03:32:12.370Z,7.70
2022-12-26T03:34:44.073Z,7.70
2022-12-26T03:37:47.718Z,7.70
2022-12-26T03:41:06.078Z,7.70
2022-12-26T03:44:21.733Z,7.70
2022-12-26T03:47:21.901Z,7.70
2022-12-26T03:50:15.216Z,7.70
2022-12-26T03:53:05.025Z,7.80
2022-12-26T03:55:56.870Z,7.80
2022-12-26T03:58:50.339Z,7.80
2022-12-26T04:01:38.714Z,7.80
2022-12-26T04:04:28.529Z,7.80
2022-12-26T04:07:17.920Z,7.90
2022-12-26T04:10:10.650Z,7.80
2022-12-26T04:12:58.953Z,7.90
2022-12-26T04:15:50.851Z,7.90
2022-12-26T04:18:42.642Z,7.90
2022-12-26T04:21:31.090Z,7.90
2022-12-26T04:24:21.111Z,7.90
2022-12-26T04:27:12.944Z,7.90
2022-12-26T04:29:58.500Z,7.90
2022-12-26T04:32:52.844Z,7.90
2022-12-26T04:35:42.695Z,7.90
2022-12-26T04:38:29.278Z,7.90
2022-12-26T04:41:18.188Z,7.90
2022-12-26T04:44:03.987Z,8.00
2022-12-26T04:46:33.137Z,8.00
2022-12-26T04:49:22.034Z,8.00
2022-12-26T04:51:50.251Z,8.00
2022-12-26T04:54:19.008Z,8.00
2022-12-26T04:56:46.958Z,8.00
2022-12-26T04:59:16.985Z,8.00
2022-12-26T05:02:02.630Z,8.00
2022-12-26T05:04:48.142Z,8.00
2022-12-26T05:07:36.319Z,8.00
2022-12-26T05:10:05.604Z,8.00
2022-12-26T05:12:33.426Z,8.00
2022-12-26T05:15:02.702Z,8.00
2022-12-26T05:17:48.011Z,8.00
2022-12-26T05:20:33.312Z,8.10
2022-12-26T05:23:20.777Z,8.10
2022-12-26T05:26:07.384Z,8.00
2022-12-26T05:28:44.514Z,8.00
2022-12-26T05:31:15.486Z,8.10
2022-12-26T05:34:01.161Z,8.10
2022-12-26T05:36:31.846Z,8.10
2022-12-26T05:39:00.588Z,8.10
2022-12-26T05:41:28.717Z,8.00
2022-12-26T05:43:56.743Z,8.00
2022-12-26T05:46:26.366Z,8.00
2022-12-26T05:48:54.411Z,8.10
2022-12-26T05:51:22.315Z,8.00
2022-12-26T05:53:50.382Z,8.00
2022-12-26T05:56:19.743Z,8.10
2022-12-26T05:58:48.013Z,8.10
2022-12-26T06:01:17.958Z,8.00
2022-12-26T06:03:50.301Z,8.00
2022-12-26T06:06:19.519Z,8.10
2022-12-26T06:08:49.918Z,8.10
2022-12-26T06:11:18.599Z,8.10
2022-12-26T06:13:46.567Z,8.10
2022-12-26T06:16:17.661Z,8.10
2022-12-26T06:18:46.177Z,8.10
2022-12-26T06:21:17.764Z,8.20
2022-12-26T06:23:46.145Z,8.20
2022-12-26T06:26:14.338Z,8.20
2022-12-26T06:28:43.450Z,8.10
2022-12-26T06:31:15.073Z,8.20
2022-12-26T06:33:43.483Z,8.20
2022-12-26T06:36:13.584Z,8.20
2022-12-26T06:38:43.447Z,8.20
2022-12-26T06:41:13.705Z,8.30
2022-12-26T06:43:42.130Z,8.20
2022-12-26T06:46:14.346Z,8.30
2022-12-26T06:48:42.531Z,8.30
2022-12-26T06:51:12.863Z,8.20
2022-12-26T06:53:42.613Z,8.30
2022-12-26T06:56:12.507Z,8.30
2022-12-26T06:58:40.914Z,8.30
2022-12-26T07:01:10.868Z,8.30
2022-12-26T07:03:41.998Z,8.30
2022-12-26T07:06:21.971Z,8.30
2022-12-26T07:08:51.986Z,8.30
2022-12-26T07:11:22.005Z,8.40
2022-12-26T07:13:50.123Z,8.40
2022-12-26T07:16:18.086Z,8.40
2022-12-26T07:18:46.067Z,8.40
2022-12-26T07:21:16.245Z,8.40
2022-12-26T07:23:44.512Z,8.50
2022-12-26T07:26:13.944Z,8.50
2022-12-26T07:28:41.957Z,8.40
2022-12-26T07:31:10.245Z,8.40
2022-12-26T07:33:38.186Z,8.40
2022-12-26T07:36:07.713Z,8.40
2022-12-26T07:38:35.608Z,8.40
2022-12-26T07:41:24.130Z,8.40
2022-12-26T07:43:53.754Z,8.50
2022-12-26T07:46:22.162Z,8.50
2022-12-26T07:48:50.227Z,8.40
2022-12-26T07:51:18.103Z,8.50
2022-12-26T07:53:45.984Z,8.50
2022-12-26T07:56:13.889Z,8.50
2022-12-26T07:58:41.828Z,8.60
2022-12-26T08:01:11.407Z,8.60
2022-12-26T08:03:39.609Z,8.60
2022-12-26T08:06:07.864Z,8.60
2022-12-26T08:08:35.821Z,8.60
2022-12-26T08:11:05.507Z,8.60
2022-12-26T08:13:33.922Z,8.70
2022-12-26T08:16:06.051Z,8.60
2022-12-26T08:18:35.916Z,8.70
2022-12-26T08:21:03.803Z,8.70
2022-12-26T08:23:31.842Z,8.70
2022-12-26T08:25:59.645Z,8.70
2022-12-26T08:28:27.483Z,8.80
2022-12-26T08:30:55.341Z,8.70
2022-12-26T08:33:23.354Z,8.80
2022-12-26T08:35:52.691Z,8.80
2022-12-26T08:38:20.574Z,8.80
2022-12-26T08:40:56.010Z,8.80
2022-12-26T08:46:13.621Z,8.90
2022-12-26T08:48:42.339Z,8.90
2022-12-26T08:51:16.234Z,8.90
2022-12-26T08:53:45.792Z,8.90
2022-12-26T08:56:16.306Z,9.00
2022-12-26T08:58:45.486Z,9.00
2022-12-26T09:01:15.383Z,8.90
2022-12-26T09:03:44.426Z,8.90
2022-12-26T09:06:14.919Z,9.00
2022-12-26T09:08:43.114Z,9.00
2022-12-26T09:11:12.969Z,9.00
2022-12-26T09:13:41.778Z,9.00
2022-12-26T09:16:12.055Z,9.00
2022-12-26T09:18:40.487Z,9.00
2022-12-26T09:21:10.600Z,9.00
2022-12-26T09:23:40.717Z,9.00
2022-12-26T09:26:11.491Z,9.00
2022-12-26T09:28:39.816Z,9.00
2022-12-26T09:31:10.855Z,9.00
2022-12-26T09:33:39.797Z,9.00
2022-12-26T09:36:14.295Z,9.00
2022-12-26T09:38:44.796Z,9.10
2022-12-26T09:41:26.004Z,9.10
2022-12-26T09:44:02.711Z,9.10
2022-12-26T09:46:34.316Z,9.10
2022-12-26T09:49:05.948Z,9.10
2022-12-26T09:51:35.454Z,9.10
2022-12-26T09:54:07.959Z,9.20
2022-12-26T09:59:29.593Z,9.10
2022-12-26T10:01:57.551Z,9.10
2022-12-26T10:04:29.914Z,9.10
2022-12-26T10:07:07.095Z,9.10
2022-12-26T10:09:55.180Z,9.20
2022-12-26T10:12:37.601Z,9.20
2022-12-26T10:15:19.279Z,9.20
2022-12-26T10:17:53.523Z,9.20
2022-12-26T10:20:29.054Z,9.20
2022-12-26T10:23:19.881Z,9.20
2022-12-26T10:25:52.077Z,9.20
2022-12-26T10:28:29.503Z,9.20
2022-12-26T10:30:59.897Z,9.30
2022-12-26T10:33:36.312Z,9.30
2022-12-26T10:36:04.491Z,9.30
2022-12-26T10:38:38.197Z,9.40
2022-12-26T10:41:12.320Z,9.40
2022-12-26T10:43:44.716Z,9.40
2022-12-26T10:46:29.511Z,9.40
2022-12-26T10:48:57.797Z,9.40
2022-12-26T10:51:26.023Z,9.40
2022-12-26T10:53:55.733Z,9.40
2022-12-26T10:56:26.596Z,9.40
2022-12-26T10:59:01.541Z,9.40
2022-12-26T11:01:35.177Z,9.40
2022-12-26T11:04:04.738Z,9.40
2022-12-26T11:06:35.141Z,9.40
2022-12-26T11:09:03.273Z,9.50
2022-12-26T11:11:46.628Z,9.50
2022-12-26T11:14:33.684Z,9.60
2022-12-26T11:17:05.916Z,9.60
2022-12-26T11:19:36.482Z,9.70
2022-12-26T11:22:23.949Z,9.70
2022-12-26T11:25:20.485Z,9.70
2022-12-26T11:27:51.688Z,9.70
2022-12-26T11:30:24.480Z,9.70
2022-12-26T11:33:09.969Z,9.70
2022-12-26T11:35:49.584Z,9.70
2022-12-26T11:38:42.602Z,9.70
2022-12-26T11:41:36.471Z,9.80
2022-12-26T11:44:15.713Z,9.70
2022-12-26T11:46:48.363Z,9.70
2022-12-26T11:49:22.035Z,9.70
2022-12-26T11:51:58.460Z,9.80
2022-12-26T11:54:34.245Z,9.80
2022-12-26T11:57:12.633Z,9.80
2022-12-26T11:59:41.967Z,9.80
2022-12-26T12:02:28.115Z,9.70
2022-12-26T12:05:01.051Z,9.70
2022-12-26T12:08:01.784Z,9.70
2022-12-26T12:10:49.516Z,9.70
2022-12-26T12:13:28.156Z,9.70
2022-12-26T12:16:07.441Z,9.70
2022-12-26T12:18:50.096Z,9.70
2022-12-26T12:21:26.888Z,9.70
2022-12-26T12:24:11.911Z,9.70
2022-12-26T12:26:51.151Z,9.70
2022-12-26T12:29:42.263Z,9.70
2022-12-26T12:32:17.895Z,9.70
2022-12-26T12:35:08.454Z,9.60
2022-12-26T12:37:46.130Z,9.60
2022-12-26T12:40:27.827Z,9.70
2022-12-26T12:43:03.204Z,9.70
2022-12-26T12:45:34.666Z,9.60
2022-12-26T12:48:26.780Z,9.50
2022-12-26T12:51:03.168Z,9.50
2022-12-26T12:53:44.937Z,9.50
2022-12-26T12:56:27.840Z,9.40
2022-12-26T12:59:02.848Z,9.40
2022-12-26T13:01:36.347Z,9.40
2022-12-26T13:04:11.573Z,9.50
2022-12-26T13:06:43.506Z,9.40
2022-12-26T13:09:16.537Z,9.50
2022-12-26T13:11:49.915Z,9.50
2022-12-26T13:14:21.866Z,9.50
2022-12-26T13:16:56.852Z,9.50
2022-12-26T13:19:29.840Z,9.60
2022-12-26T13:22:02.420Z,9.60
2022-12-26T13:24:34.931Z,9.60
2022-12-26T13:27:11.094Z,9.60
2022-12-26T13:29:41.114Z,9.60
2022-12-26T13:32:20.615Z,9.60
2022-12-26T13:34:50.614Z,9.60
2022-12-26T13:37:57.100Z,9.60
2022-12-26T13:40:28.690Z,9.70
2022-12-26T13:43:18.911Z,9.70
2022-12-26T13:45:57.161Z,9.60
2022-12-26T13:48:57.433Z,9.60
2022-12-26T13:51:53.743Z,9.70
2022-12-26T13:54:23.473Z,9.70
2022-12-26T13:57:18.827Z,9.70
2022-12-26T14:00:04.960Z,9.60
2022-12-26T14:03:17.243Z,9.40
2022-12-26T14:05:58.824Z,9.10
2022-12-26T14:08:37.323Z,9.00
2022-12-26T14:11:20.253Z,8.90
2022-12-26T14:13:57.596Z,8.90
2022-12-26T14:16:35.202Z,8.60
2022-12-26T14:19:17.199Z,8.40
2022-12-26T14:21:53.122Z,8.40
2022-12-26T14:24:31.994Z,8.30
2022-12-26T14:27:23.586Z,8.30
2022-12-26T14:29:58.855Z,8.30
2022-12-26T14:32:34.925Z,8.30
2022-12-26T14:35:11.038Z,8.30
2022-12-26T14:37:48.246Z,8.20
2022-12-26T14:40:29.993Z,8.20
2022-12-26T14:43:28.461Z,8.10
2022-12-26T14:45:57.563Z,8.00
2022-12-26T14:48:49.270Z,7.90
2022-12-26T14:51:39.229Z,7.80
2022-12-26T14:54:36.383Z,7.70
2022-12-26T14:57:52.127Z,7.50
2022-12-26T15:00:33.909Z,7.40
2022-12-26T15:03:28.237Z,7.40
2022-12-26T15:06:14.605Z,7.40
2022-12-26T15:09:00.908Z,7.40
2022-12-26T15:12:03.410Z,7.30
2022-12-26T15:14:58.405Z,7.20
2022-12-26T15:17:38.032Z,7.10
2022-12-26T15:20:37.049Z,7.10
2022-12-26T15:23:45.844Z,7.00
2022-12-26T15:26:43.160Z,7.00
2022-12-26T15:29:40.557Z,6.90
2022-12-26T15:32:15.424Z,6.90
2022-12-26T15:35:07.221Z,6.90
2022-12-26T15:38:04.580Z,6.90
2022-12-26T15:40:36.887Z,6.80
2022-12-26T15:43:47.688Z,6.70
2022-12-26T15:46:21.205Z,6.70
2022-12-26T15:49:08.051Z,6.60
2022-12-26T15:51:55.572Z,6.60
2022-12-26T15:54:38.421Z,6.50
2022-12-26T15:57:16.000Z,6.50
2022-12-26T16:00:07.105Z,6.50
2022-12-26T16:02:46.883Z,6.50
2022-12-26T16:05:34.306Z,6.60
2022-12-26T16:08:16.142Z,6.60
2022-12-26T16:10:44.571Z,6.50
2022-12-26T16:13:22.730Z,6.50
2022-12-26T16:15:52.778Z,6.40
2022-12-26T16:18:22.608Z,6.40
2022-12-26T16:21:18.947Z,6.40
2022-12-26T16:23:50.526Z,6.30
2022-12-26T16:26:20.501Z,6.30
2022-12-26T16:28:48.498Z,6.40
2022-12-26T16:31:22.088Z,6.30
2022-12-26T16:33:52.900Z,6.40
2022-12-26T16:36:22.952Z,6.40
2022-12-26T16:38:53.398Z,6.30
2022-12-26T16:41:22.997Z,6.30
2022-12-26T16:43:52.542Z,6.30
2022-12-26T16:46:23.124Z,6.30
2022-12-26T16:48:56.181Z,6.20
2022-12-26T16:51:41.560Z,6.20
2022-12-26T16:54:18.854Z,6.20
2022-12-26T16:56:50.871Z,6.20
2022-12-26T16:59:20.993Z,6.10
2022-12-26T17:01:50.716Z,6.10
2022-12-26T17:04:21.120Z,6.10
2022-12-26T17:06:52.366Z,6.10
2022-12-26T17:09:23.931Z,6.10
2022-12-26T17:11:55.674Z,6.00
2022-12-26T17:14:27.237Z,6.10
2022-12-26T17:16:59.696Z,6.00
2022-12-26T17:19:30.258Z,6.00
2022-12-26T17:22:22.560Z,6.00
2022-12-26T17:24:52.938Z,5.90
2022-12-26T17:27:23.538Z,5.90
2022-12-26T17:29:55.319Z,5.90
2022-12-26T17:32:34.261Z,5.80
2022-12-26T17:35:05.128Z,5.80
2022-12-26T17:37:33.396Z,5.80
2022-12-26T17:40:09.269Z,5.80
2022-12-26T17:42:47.280Z,5.80
2022-12-26T17:45:17.766Z,5.70
2022-12-26T17:47:45.956Z,5.70
2022-12-26T17:50:13.997Z,5.70
2022-12-26T17:52:42.987Z,5.70
2022-12-26T17:55:17.693Z,5.70
2022-12-26T17:57:45.563Z,5.60
2022-12-26T18:00:18.748Z,5.60
2022-12-26T18:02:46.700Z,5.60
2022-12-26T18:05:15.527Z,5.60
2022-12-26T18:07:44.244Z,5.60
2022-12-26T18:10:19.769Z,5.60
2022-12-26T18:12:48.299Z,5.50
2022-12-26T18:15:16.416Z,5.60
2022-12-26T18:17:45.020Z,5.50
2022-12-26T18:20:17.915Z,5.50
2022-12-26T18:22:47.496Z,5.40
2022-12-26T18:25:16.613Z,5.40
2022-12-26T18:27:46.050Z,5.40
2022-12-26T18:30:17.871Z,5.30
2022-12-26T18:32:46.567Z,5.30
2022-12-26T18:35:14.760Z,5.30
2022-12-26T18:37:46.723Z,5.30
2022-12-26T18:40:28.757Z,5.30
2022-12-26T18:42:58.072Z,5.30
2022-12-26T18:45:26.208Z,5.20
2022-12-26T18:47:54.124Z,5.20
2022-12-26T18:50:22.006Z,5.10
2022-12-26T18:52:53.507Z,5.10
2022-12-26T18:55:22.694Z,5.10
2022-12-26T18:57:50.884Z,5.10
2022-12-26T19:00:21.644Z,5.10
2022-12-26T19:02:50.282Z,5.10
2022-12-26T19:05:20.453Z,5.10
2022-12-26T19:07:50.071Z,5.00
2022-12-26T19:10:20.147Z,5.00
2022-12-26T19:12:48.340Z,5.00
2022-12-26T19:15:16.442Z,5.00
2022-12-26T19:17:45.876Z,5.00
2022-12-26T19:20:18.898Z,5.00
2022-12-26T19:22:47.509Z,4.90
2022-12-26T19:25:16.194Z,5.00
2022-12-26T19:27:44.428Z,5.00
2022-12-26T19:30:13.207Z,5.00
2022-12-26T19:32:42.534Z,5.00
2022-12-26T19:35:12.705Z,5.00
2022-12-26T19:37:41.166Z,5.00
2022-12-26T19:40:11.499Z,5.00
2022-12-26T19:42:39.622Z,5.00
2022-12-26T19:45:09.747Z,5.00
2022-12-26T19:47:38.291Z,5.00
2022-12-26T19:50:08.033Z,5.00
2022-12-26T19:52:38.700Z,5.00
2022-12-26T19:55:08.154Z,5.00
2022-12-26T19:57:36.067Z,5.00
2022-12-26T20:00:04.155Z,5.00
2022-12-26T20:02:40.108Z,5.00
2022-12-26T20:05:09.188Z,5.00
2022-12-26T20:07:38.616Z,5.00
2022-12-26T20:10:07.125Z,5.00
2022-12-26T20:12:35.084Z,4.90
2022-12-26T20:15:02.937Z,4.90
2022-12-26T20:17:30.806Z,4.90
2022-12-26T20:19:58.723Z,4.90
2022-12-26T20:22:27.120Z,4.90
2022-12-26T20:24:56.333Z,4.90
2022-12-26T20:27:24.204Z,4.80
2022-12-26T20:29:52.058Z,4.80
2022-12-26T20:32:19.920Z,4.80
2022-12-26T20:34:47.743Z,4.80
2022-12-26T20:37:15.562Z,4.80
2022-12-26T20:39:43.562Z,4.80
2022-12-26T20:42:15.559Z,4.70
2022-12-26T20:44:43.593Z,4.70
2022-12-26T20:47:11.460Z,4.70
2022-12-26T20:49:39.315Z,4.70
2022-12-26T20:52:07.164Z,4.70
2022-12-26T20:54:35.160Z,4.70
2022-12-26T20:57:03.618Z,4.80
2022-12-26T20:59:32.916Z,4.80
2022-12-26T21:02:00.893Z,4.70
2022-12-26T21:04:28.914Z,4.70
2022-12-26T21:06:56.806Z,4.70
2022-12-26T21:09:24.886Z,4.60
2022-12-26T21:11:52.850Z,4.60
2022-12-26T21:14:22.392Z,4.60
2022-12-26T21:16:53.849Z,4.50
2022-12-26T21:19:24.314Z,4.50
2022-12-26T21:21:54.775Z,4.60
2022-12-26T21:24:24.687Z,4.50
2022-12-26T21:26:53.259Z,4.50
2022-12-26T21:29:23.081Z,4.50
2022-12-26T21:31:53.099Z,4.60
2022-12-26T21:34:22.882Z,4.60
2022-12-26T21:37:05.400Z,4.60
2022-12-26T21:39:34.538Z,4.60
2022-12-26T21:42:02.816Z,4.60
2022-12-26T21:44:30.923Z,4.70
2022-12-26T21:47:00.417Z,4.70
2022-12-26T21:49:28.683Z,4.70
2022-12-26T21:51:56.476Z,4.70
2022-12-26T21:54:48.364Z,4.70
2022-12-26T21:57:16.978Z,4.70
2022-12-26T21:59:57.313Z,4.70
2022-12-26T22:02:46.463Z,4.70
2022-12-26T22:05:14.919Z,4.70
2022-12-26T22:07:43.273Z,4.70
2022-12-26T22:10:33.403Z,4.70
2022-12-26T22:13:01.490Z,4.70
2022-12-26T22:15:46.943Z,4.70
2022-12-26T22:18:16.242Z,4.70
2022-12-26T22:20:45.863Z,4.60
2022-12-26T22:23:14.172Z,4.50
2022-12-26T22:25:42.065Z,4.50
2022-12-26T22:28:09.845Z,4.50
2022-12-26T22:30:37.829Z,4.50
2022-12-26T22:33:05.778Z,4.40
2022-12-26T22:35:35.196Z,4.40
2022-12-26T22:38:03.066Z,4.40
2022-12-26T22:40:30.923Z,4.40
2022-12-26T22:42:58.781Z,4.40
2022-12-26T22:45:26.657Z,4.40
2022-12-26T22:47:54.478Z,4.30
2022-12-26T22:50:22.353Z,4.30
2022-12-26T22:52:52.069Z,4.30
2022-12-26T22:55:19.893Z,4.30
2022-12-26T22:57:52.329Z,4.20
2022-12-26T23:00:20.612Z,4.30
2022-12-26T23:02:48.534Z,4.30
2022-12-26T23:05:17.232Z,4.30
2022-12-26T23:07:45.739Z,4.30
2022-12-26T23:10:21.480Z,4.20
2022-12-26T23:12:49.957Z,4.20
2022-12-26T23:15:20.025Z,4.20
2022-12-26T23:18:10.061Z,4.20
2022-12-26T23:20:58.064Z,4.20
2022-12-26T23:23:26.708Z,4.10
2022-12-26T23:25:55.938Z,4.10
2022-12-26T23:28:41.305Z,4.10
2022-12-26T23:31:09.308Z,4.10
2022-12-26T23:33:37.396Z,4.00
2022-12-26T23:36:05.697Z,4.00
2022-12-26T23:38:33.516Z,4.00
2022-12-26T23:41:02.860Z,4.10
2022-12-26T23:43:33.357Z,4.10
2022-12-26T23:46:01.556Z,4.10
2022-12-26T23:48:29.551Z,4.10
2022-12-26T23:51:04.608Z,4.10
2022-12-26T23:53:32.470Z,4.10
2022-12-26T23:56:01.701Z,4.10
2022-12-26T23:58:30.218Z,4.00
